createdAt,value
2022-12-14T00:00:04.433Z,6.47
2022-12-14T00:05:15.641Z,5.97
2022-12-14T00:10:17.042Z,5.80
2022-12-14T00:15:18.506Z,5.90
2022-12-14T00:20:20.130Z,4.63
2022-12-14T00:25:22.539Z,6.95
2022-12-14T00:30:23.991Z,7.47
2022-12-14T00:35:25.385Z,6.55
2022-12-14T00:40:26.788Z,8.05
2022-12-14T00:45:28.211Z,7.60
2022-12-14T00:50:29.607Z,8.13
2022-12-14T00:55:31.011Z,8.82
2022-12-14T01:00:32.926Z,6.75
2022-12-14T01:05:35.313Z,7.15
2022-12-14T01:10:40.293Z,6.27
2022-12-14T01:15:42.582Z,7.25
2022-12-14T01:20:43.998Z,7.10
2022-12-14T01:25:45.388Z,6.55
2022-12-14T01:30:50.423Z,6.20
2022-12-14T01:35:51.859Z,5.95
2022-12-14T01:40:57.708Z,6.40
2022-12-14T01:45:59.129Z,5.53
2022-12-14T01:51:00.551Z,6.35
2022-12-14T01:56:04.092Z,7.60
2022-12-14T02:01:05.780Z,7.32
2022-12-14T02:06:11.997Z,5.78
2022-12-14T02:11:13.592Z,6.10
2022-12-14T02:16:15.303Z,6.90
2022-12-14T02:21:30.179Z,6.95
2022-12-14T02:26:34.720Z,5.25
2022-12-14T02:32:12.250Z,7.05
2022-12-14T02:37:23.058Z,7.03
2022-12-14T02:42:41.116Z,7.10
2022-12-14T02:47:54.496Z,6.97
2022-12-14T02:58:08.812Z,7.07
2022-12-14T03:03:10.200Z,8.20
2022-12-14T03:08:15.411Z,6.03
2022-12-14T03:13:23.938Z,8.38
2022-12-14T03:18:29.422Z,7.53
2022-12-14T03:23:34.866Z,8.05
2022-12-14T03:28:50.364Z,6.10
2022-12-14T03:33:55.536Z,6.60
2022-12-14T03:39:00.204Z,7.32
2022-12-14T03:44:04.515Z,8.13
2022-12-14T03:49:21.295Z,7.85
2022-12-14T03:54:28.642Z,8.10
2022-12-14T04:00:00.390Z,7.88
2022-12-14T04:05:12.843Z,7.60
2022-12-14T04:10:38.044Z,7.40
2022-12-14T04:16:00.892Z,7.63
2022-12-14T04:21:11.516Z,5.40
2022-12-14T04:26:17.416Z,5.95
2022-12-14T04:31:22.197Z,8.35
2022-12-14T04:36:32.777Z,7.40
2022-12-14T04:41:38.552Z,8.23
2022-12-14T04:46:41.112Z,7.43
2022-12-14T04:52:08.218Z,8.60
2022-12-14T04:57:37.211Z,9.20
2022-12-14T05:03:01.816Z,10.45
2022-12-14T05:08:50.223Z,10.55
2022-12-14T05:13:51.774Z,9.70
2022-12-14T05:18:53.237Z,8.98
2022-12-14T05:23:54.639Z,9.95
2022-12-14T05:28:56.709Z,9.45
2022-12-14T05:33:58.160Z,8.60
2022-12-14T05:38:59.662Z,7.47
2022-12-14T05:44:01.059Z,9.02
2022-12-14T05:49:02.733Z,9.70
2022-12-14T05:54:05.252Z,8.43
2022-12-14T05:59:06.766Z,8.60
2022-12-14T06:04:08.262Z,9.68
2022-12-14T06:09:11.024Z,10.80
2022-12-14T06:14:13.174Z,9.10
2022-12-14T06:19:15.355Z,9.77
2022-12-14T06:24:16.915Z,10.97
2022-12-14T06:29:19.669Z,10.48
2022-12-14T06:34:28.034Z,15.05
2022-12-14T06:39:30.051Z,12.77
2022-12-14T06:44:31.738Z,11.00
2022-12-14T06:49:33.246Z,9.52
2022-12-14T06:54:34.642Z,14.65
2022-12-14T06:59:36.040Z,9.13
2022-12-14T07:04:37.504Z,9.38
2022-12-14T07:09:39.235Z,10.85
2022-12-14T07:14:40.714Z,10.18
2022-12-14T07:19:45.022Z,9.15
2022-12-14T07:24:50.540Z,9.13
2022-12-14T07:29:52.287Z,9.25
2022-12-14T07:34:53.677Z,9.73
2022-12-14T07:39:55.090Z,8.13
2022-12-14T07:44:56.503Z,10.20
2022-12-14T07:49:57.945Z,9.63
2022-12-14T07:54:59.580Z,9.75
2022-12-14T08:00:00.984Z,10.25
2022-12-14T08:05:05.390Z,10.10
2022-12-14T08:10:10.637Z,11.57
2022-12-14T08:15:12.033Z,11.38
2022-12-14T08:20:13.572Z,12.15
2022-12-14T08:25:15.075Z,10.55
2022-12-14T08:30:16.650Z,10.20
2022-12-14T08:35:18.141Z,10.43
2022-12-14T08:40:19.583Z,9.88
2022-12-14T08:45:21.101Z,11.25
2022-12-14T08:50:22.528Z,11.85
2022-12-14T08:55:29.175Z,9.40
2022-12-14T09:00:33.011Z,10.63
2022-12-14T09:05:35.249Z,12.27
2022-12-14T09:10:36.661Z,10.55
2022-12-14T09:15:38.107Z,10.20
2022-12-14T09:20:39.644Z,11.73
2022-12-14T09:25:41.110Z,12.15
2022-12-14T09:30:42.521Z,12.05
2022-12-14T09:35:43.924Z,11.48
2022-12-14T09:40:55.722Z,12.15
2022-12-14T09:46:03.713Z,12.23
2022-12-14T09:51:05.404Z,12.15
2022-12-14T09:56:09.344Z,11.80
2022-12-14T10:01:23.161Z,13.13
2022-12-14T10:06:27.752Z,11.65
2022-12-14T10:11:47.920Z,12.48
2022-12-14T10:16:56.070Z,13.52
2022-12-14T10:22:02.646Z,13.85
2022-12-14T10:27:09.084Z,12.60
2022-12-14T10:32:10.463Z,14.00
2022-12-14T10:37:26.108Z,14.10
2022-12-14T10:42:30.554Z,14.32
2022-12-14T10:47:39.800Z,13.75
2022-12-14T10:52:44.247Z,14.75
2022-12-14T10:57:45.961Z,14.43
2022-12-14T11:02:54.650Z,15.15
2022-12-14T11:07:56.358Z,14.90
2022-12-14T11:13:12.996Z,14.88
2022-12-14T11:18:17.654Z,14.65
2022-12-14T11:23:25.216Z,14.73
2022-12-14T11:28:45.720Z,12.48
2022-12-14T11:33:54.511Z,15.50
2022-12-14T11:38:58.039Z,12.43
2022-12-14T11:44:05.810Z,13.88
2022-12-14T11:49:20.131Z,14.95
2022-12-14T11:54:21.539Z,13.32
2022-12-14T11:59:28.515Z,13.95
2022-12-14T12:04:30.166Z,12.77
2022-12-14T12:09:31.690Z,14.15
2022-12-14T12:14:37.052Z,13.30
2022-12-14T12:19:39.495Z,12.65
2022-12-14T12:25:24.101Z,13.20
2022-12-14T12:30:29.643Z,14.88
2022-12-14T12:35:54.047Z,13.32
2022-12-14T12:41:11.882Z,13.88
2022-12-14T12:46:20.220Z,14.32
2022-12-14T12:51:26.979Z,12.95
2022-12-14T12:56:48.072Z,38.08
2022-12-14T13:01:57.012Z,13.35
2022-12-14T13:07:06.172Z,12.27
2022-12-14T13:12:20.841Z,13.65
2022-12-14T13:17:40.022Z,14.13
2022-12-14T13:22:41.718Z,13.57
2022-12-14T13:28:03.703Z,14.82
2022-12-14T13:33:21.159Z,16.23
2022-12-14T13:39:03.486Z,29.60
2022-12-14T13:44:21.275Z,17.88
2022-12-14T13:49:25.192Z,16.83
2022-12-14T13:54:32.131Z,17.37
2022-12-14T13:59:41.560Z,20.30
2022-12-14T14:04:43.300Z,31.27
2022-12-14T14:09:56.997Z,16.85
2022-12-14T14:15:18.846Z,15.55
2022-12-14T14:20:31.765Z,16.27
2022-12-14T14:25:33.206Z,16.10
2022-12-14T14:30:56.535Z,14.65
2022-12-14T14:36:35.960Z,15.48
2022-12-14T14:41:43.341Z,15.90
2022-12-14T14:46:48.402Z,17.08
2022-12-14T14:51:50.187Z,18.88
2022-12-14T14:56:52.459Z,15.65
2022-12-14T15:02:01.364Z,13.88
2022-12-14T15:07:07.582Z,14.27
2022-12-14T15:12:33.144Z,13.88
2022-12-14T15:17:34.713Z,15.38
2022-12-14T15:22:42.490Z,16.13
2022-12-14T15:27:44.037Z,15.95
2022-12-14T15:32:57.003Z,17.40
2022-12-14T15:38:03.027Z,18.25
2022-12-14T15:43:19.893Z,18.38
2022-12-14T15:48:34.064Z,16.63
2022-12-14T15:53:49.893Z,15.63
2022-12-14T15:58:53.122Z,15.40
2022-12-14T16:03:58.707Z,14.98
2022-12-14T16:09:28.754Z,15.02
2022-12-14T16:14:44.050Z,16.88
2022-12-14T16:19:59.971Z,18.40
2022-12-14T16:25:08.296Z,16.58
2022-12-14T16:30:29.879Z,16.55
2022-12-14T16:35:34.615Z,17.30
2022-12-14T16:40:40.732Z,15.30
2022-12-14T16:45:42.248Z,15.43
2022-12-14T16:51:05.005Z,13.50
2022-12-14T16:56:14.167Z,16.42
2022-12-14T17:01:15.763Z,17.35
2022-12-14T17:06:24.975Z,15.45
2022-12-14T17:11:26.534Z,19.15
2022-12-14T17:16:28.017Z,18.27
2022-12-14T17:21:29.660Z,18.42
2022-12-14T17:26:32.061Z,21.27
2022-12-14T17:31:33.781Z,19.07
2022-12-14T17:36:35.503Z,19.02
2022-12-14T17:41:40.967Z,18.05
2022-12-14T17:46:43.852Z,20.40
2022-12-14T17:51:46.326Z,19.73
2022-12-14T17:56:47.727Z,21.03
2022-12-14T18:01:49.686Z,21.35
2022-12-14T18:06:51.452Z,20.52
2022-12-14T18:12:21.648Z,15.63
2022-12-14T18:17:14.621Z,14.68
2022-12-14T18:22:16.064Z,14.85
2022-12-14T18:27:17.487Z,14.77
2022-12-14T18:32:19.258Z,14.68
2022-12-14T18:37:24.494Z,18.33
2022-12-14T18:42:27.629Z,18.83
2022-12-14T18:47:43.045Z,20.27
2022-12-14T18:52:45.591Z,20.40
2022-12-14T18:57:49.656Z,18.67
2022-12-14T19:02:51.833Z,23.65
2022-12-14T19:07:53.615Z,27.77
2022-12-14T19:12:55.396Z,25.70
2022-12-14T19:17:56.940Z,24.10
2022-12-14T19:22:58.455Z,25.23
2022-12-14T19:28:26.084Z,29.70
2022-12-14T19:33:24.850Z,33.80
2022-12-14T19:38:26.309Z,26.92
2022-12-14T19:43:29.120Z,25.70
2022-12-14T19:53:33.644Z,19.40
2022-12-14T19:58:35.684Z,20.15
2022-12-14T20:03:37.929Z,22.73
2022-12-14T20:08:39.686Z,17.17
2022-12-14T20:13:41.103Z,19.77
2022-12-14T20:18:42.916Z,20.27
2022-12-14T20:23:44.834Z,17.38
2022-12-14T20:28:47.787Z,19.15
2022-12-14T20:33:50.738Z,18.98
2022-12-14T20:38:57.531Z,19.17
2022-12-14T20:43:59.970Z,18.63
2022-12-14T20:49:04.684Z,17.20
2022-12-14T20:54:10.154Z,17.60
2022-12-14T20:59:11.663Z,20.52
2022-12-14T21:04:13.287Z,17.15
2022-12-14T21:09:15.077Z,16.08
2022-12-14T21:14:17.682Z,18.15
2022-12-14T21:19:19.563Z,21.50
2022-12-14T21:24:44.733Z,20.33
2022-12-14T21:29:45.305Z,18.05
2022-12-14T21:34:46.922Z,17.93
2022-12-14T21:39:54.116Z,17.27
2022-12-14T21:44:57.548Z,16.98
2022-12-14T21:49:59.022Z,17.05
2022-12-14T21:55:00.608Z,16.40
2022-12-14T22:00:03.952Z,18.88
2022-12-14T22:05:13.407Z,16.80
2022-12-14T22:10:16.753Z,16.52
2022-12-14T22:15:21.627Z,16.73
2022-12-14T22:20:23.035Z,18.05
2022-12-14T22:25:24.448Z,17.77
2022-12-14T22:30:31.617Z,16.67
2022-12-14T22:35:34.020Z,17.15
2022-12-14T22:40:35.498Z,16.27
2022-12-14T22:45:36.961Z,17.60
2022-12-14T22:50:38.396Z,17.05
2022-12-14T22:55:40.685Z,17.45
2022-12-14T23:00:42.168Z,16.15
2022-12-14T23:05:43.660Z,16.90
2022-12-14T23:11:03.792Z,14.75
2022-12-14T23:16:23.970Z,13.43
2022-12-14T23:21:44.042Z,14.00
2022-12-14T23:27:09.369Z,13.30
2022-12-14T23:32:30.303Z,12.43
2022-12-14T23:37:50.398Z,15.82
2022-12-14T23:43:10.508Z,14.70
2022-12-14T23:48:30.421Z,15.57
2022-12-14T23:53:50.728Z,15.32
2022-12-14T23:59:13.906Z,14.32
